Estación Meteorológica Peña el Pijo (Robertgarden) [ 12/14/19 09:40:25 CET ]

Fecha Hora Presion(HPa) Temp (°C) Humedad % Rocio (°C) Viento ( m/s) Direccion Lluvia 1Hora(mm) Lluvia 24H(mm) LLuvia Total(mm)
2019-Oct-10 01:01:42 1011.900 12.3 79 8.8         490.25
2019-Oct-10 02:01:42 1011.900 11.4 82 8.4         490.25
2019-Oct-10 03:01:49 1011.900 10.8 83 8.0         490.25
2019-Oct-10 04:04:09 1011.900 10.2 84 7.6         490.25
2019-Oct-10 05:01:44 1011.900 9.8 85 7.4         490.25
2019-Oct-10 06:01:44 1012.000 10.9 86 8.6         490.25
2019-Oct-10 07:01:54 1012.300 11.6 85 9.1         490.25
2019-Oct-10 08:01:53 1012.600 11.8 85 9.3         490.25
2019-Oct-10 09:01:53 1013.000 12.4 86 10.1         490.25
2019-Oct-10 10:01:58 1013.400 13.5 86 11.2         490.25
2019-Oct-10 11:01:58 1014.100 15.9 85 13.4         0.00
2019-Oct-10 12:01:40 1013.800 19.7 75 15.1         0.00
2019-Oct-10 13:01:58 1013.400 22.7 63 15.3         0.00
2019-Oct-10 14:01:47 1012.800 26.6 53 16.2         0.00
2019-Oct-10 15:01:38 1012.100 27.2 49 15.5         0.00
2019-Oct-10 16:01:36 1011.800 27.4 49 15.7         0.00
2019-Oct-10 17:01:50 1011.800 26.6 49 15.0         0.00
2019-Oct-10 18:01:49 1012.000 25.1 53 14.8         0.00
2019-Oct-10 19:01:52 1012.400 21.1 59 12.8         0.00
2019-Oct-10 20:01:36 1012.700 19.0 67 12.7         0.00
2019-Oct-10 21:01:40 1013.200 17.4 71 12.1         0.00
2019-Oct-10 22:01:38 1013.700 14.9 75 10.5         0.00
2019-Oct-10 23:01:48 1014.100 13.3 79 9.7         0.00

Temperatura Máxima:27°    Temperatura Mínima:
Presión Máxima:1014.100 Hpa    Presión Mínima:1011.800 Hpa


Volver